createdAt,value
2018-04-14T00:00:44.320Z,18.37
2018-04-14T00:03:11.713Z,17.90
2018-04-14T00:05:39.149Z,20.20
2018-04-14T00:08:06.535Z,17.83
2018-04-14T00:10:33.925Z,18.30
2018-04-14T00:13:01.336Z,19.33
2018-04-14T00:15:28.724Z,16.97
2018-04-14T00:17:56.233Z,16.07
2018-04-14T00:20:23.600Z,21.33
2018-04-14T00:22:50.989Z,19.87
2018-04-14T00:25:18.501Z,17.77
2018-04-14T00:27:45.961Z,19.87
2018-04-14T00:30:13.388Z,20.17
2018-04-14T00:32:40.772Z,19.13
2018-04-14T00:35:08.140Z,18.30
2018-04-14T00:37:35.540Z,19.50
2018-04-14T00:40:02.966Z,20.30
2018-04-14T00:42:30.319Z,18.87
2018-04-14T00:44:57.747Z,21.23
2018-04-14T00:47:25.148Z,20.10
2018-04-14T00:49:52.526Z,20.47
2018-04-14T00:52:19.959Z,18.77
2018-04-14T00:54:48.162Z,21.30
2018-04-14T00:57:15.551Z,20.97
2018-04-14T00:59:42.938Z,24.20
2018-04-14T01:02:10.336Z,27.23
2018-04-14T01:04:37.723Z,23.77
2018-04-14T01:07:05.121Z,26.20
2018-04-14T01:09:32.473Z,29.37
2018-04-14T01:11:59.885Z,28.30
2018-04-14T01:14:27.388Z,27.57
2018-04-14T01:16:54.775Z,27.80
2018-04-14T01:19:22.217Z,27.67
2018-04-14T01:21:49.574Z,26.03
2018-04-14T01:24:16.931Z,28.57
2018-04-14T01:26:44.348Z,29.20
2018-04-14T01:29:11.775Z,29.67
2018-04-14T01:31:39.163Z,27.03
2018-04-14T01:34:06.548Z,25.40
2018-04-14T01:36:33.939Z,29.50
2018-04-14T01:39:01.498Z,25.00
2018-04-14T01:41:28.911Z,24.03
2018-04-14T01:43:56.270Z,31.60
2018-04-14T01:46:23.622Z,33.90
2018-04-14T01:48:51.023Z,29.63
2018-04-14T01:51:18.418Z,29.27
2018-04-14T01:53:45.766Z,32.57
2018-04-14T01:56:13.144Z,34.80
2018-04-14T01:58:41.587Z,33.67
2018-04-14T02:01:09.031Z,32.83
2018-04-14T02:03:36.420Z,31.53
2018-04-14T02:06:03.849Z,31.90
2018-04-14T02:08:31.198Z,32.80
2018-04-14T02:10:58.573Z,34.90
2018-04-14T02:13:25.978Z,33.30
2018-04-14T02:15:53.365Z,31.63
2018-04-14T02:18:20.779Z,33.47
2018-04-14T02:20:48.171Z,33.97
2018-04-14T02:23:15.593Z,34.00
2018-04-14T02:25:43.038Z,32.17
2018-04-14T02:28:10.400Z,38.87
2018-04-14T02:30:37.831Z,35.13
2018-04-14T02:33:05.229Z,37.37
2018-04-14T02:35:32.698Z,34.67
2018-04-14T02:38:00.121Z,34.77
2018-04-14T02:40:27.482Z,32.50
2018-04-14T02:42:54.835Z,34.90
2018-04-14T02:45:22.256Z,36.50
2018-04-14T02:47:49.656Z,34.13
2018-04-14T02:50:17.067Z,33.80
2018-04-14T02:52:44.476Z,34.03
2018-04-14T02:55:11.912Z,33.80
2018-04-14T02:57:39.330Z,34.13
2018-04-14T03:00:06.675Z,40.03
2018-04-14T03:02:34.086Z,36.87
2018-04-14T03:05:01.499Z,39.83
2018-04-14T03:07:28.870Z,37.33
2018-04-14T03:09:56.312Z,37.50
2018-04-14T03:12:23.855Z,39.80
2018-04-14T03:14:51.238Z,38.03
2018-04-14T03:17:18.635Z,37.17
2018-04-14T03:19:46.111Z,37.60
2018-04-14T03:22:13.464Z,39.07
2018-04-14T03:24:41.216Z,38.87
2018-04-14T03:27:08.600Z,41.60
2018-04-14T03:29:35.995Z,41.97
2018-04-14T03:32:03.350Z,41.50
2018-04-14T03:34:30.712Z,39.90
2018-04-14T03:36:58.118Z,46.30
2018-04-14T03:39:25.506Z,48.43
2018-04-14T03:41:52.863Z,47.30
2018-04-14T03:44:20.439Z,47.00
2018-04-14T03:46:47.960Z,42.63
2018-04-14T03:49:15.307Z,42.77
2018-04-14T03:51:42.716Z,48.03
2018-04-14T03:54:10.072Z,41.63
2018-04-14T03:56:37.473Z,45.20
2018-04-14T03:59:04.903Z,49.13
2018-04-14T04:01:32.370Z,55.30
2018-04-14T04:03:59.777Z,58.83
2018-04-14T04:06:27.184Z,55.53
2018-04-14T04:08:54.573Z,61.40
2018-04-14T04:11:21.975Z,67.00
2018-04-14T04:13:49.337Z,73.27
2018-04-14T04:16:16.807Z,64.10
2018-04-14T04:18:49.948Z,64.43
2018-04-14T04:21:23.187Z,64.20
2018-04-14T04:23:56.637Z,62.90
2018-04-14T04:26:24.030Z,51.50
2018-04-14T04:28:51.446Z,51.80
2018-04-14T04:31:18.824Z,48.30
2018-04-14T04:33:46.239Z,55.63
2018-04-14T04:36:13.644Z,46.57
2018-04-14T04:38:41.030Z,59.47
2018-04-14T04:41:08.950Z,60.13
2018-04-14T04:43:36.340Z,65.97
2018-04-14T04:46:03.732Z,69.93
2018-04-14T04:48:31.738Z,67.17
2018-04-14T04:50:59.125Z,84.97
2018-04-14T04:53:26.512Z,83.63
2018-04-14T04:55:53.943Z,88.50
2018-04-14T04:58:21.328Z,103.90
2018-04-14T05:00:48.716Z,112.63
2018-04-14T05:03:16.798Z,121.50
2018-04-14T05:05:44.208Z,144.63
2018-04-14T05:08:11.621Z,130.57
2018-04-14T05:10:40.011Z,132.17
2018-04-14T05:13:07.497Z,127.90
2018-04-14T05:15:34.882Z,126.50
2018-04-14T05:18:02.247Z,136.70
2018-04-14T05:20:29.602Z,134.00
2018-04-14T05:22:56.983Z,148.80
2018-04-14T05:25:24.338Z,151.50
2018-04-14T05:27:51.689Z,148.03
2018-04-14T05:30:19.100Z,151.57
2018-04-14T05:32:46.498Z,162.03
2018-04-14T05:35:13.878Z,143.83
2018-04-14T05:37:41.323Z,151.97
2018-04-14T05:40:08.742Z,131.10
2018-04-14T05:42:36.160Z,137.97
2018-04-14T05:45:03.591Z,116.87
2018-04-14T05:47:30.954Z,118.33
2018-04-14T05:49:58.402Z,119.23
2018-04-14T05:52:25.795Z,116.33
2018-04-14T05:54:53.154Z,113.03
2018-04-14T05:57:20.545Z,96.23
2018-04-14T05:59:47.956Z,117.33
2018-04-14T06:02:15.344Z,103.67
2018-04-14T06:04:42.706Z,108.97
2018-04-14T06:07:10.087Z,105.83
2018-04-14T06:09:37.504Z,123.67
2018-04-14T06:12:04.887Z,127.27
2018-04-14T06:14:32.277Z,110.53
2018-04-14T06:16:59.709Z,97.13
2018-04-14T06:19:27.093Z,99.37
2018-04-14T06:21:54.443Z,87.97
2018-04-14T06:24:21.872Z,106.90
2018-04-14T06:26:49.295Z,88.40
2018-04-14T06:29:17.736Z,100.23
2018-04-14T06:31:45.231Z,100.83
2018-04-14T06:34:12.611Z,100.53
2018-04-14T06:36:40.189Z,104.87
2018-04-14T06:39:07.659Z,97.40
2018-04-14T06:41:35.136Z,108.43
2018-04-14T06:44:02.565Z,113.67
2018-04-14T06:46:29.999Z,113.27
2018-04-14T06:48:57.448Z,116.40
2018-04-14T06:51:24.885Z,108.57
2018-04-14T06:53:52.332Z,119.73
2018-04-14T06:56:19.696Z,118.40
2018-04-14T06:58:47.056Z,105.93
2018-04-14T07:01:14.515Z,121.33
2018-04-14T07:03:41.940Z,121.43
2018-04-14T07:06:09.360Z,115.27
2018-04-14T07:08:36.741Z,111.43
2018-04-14T07:11:04.094Z,119.83
2018-04-14T07:13:31.520Z,116.50
2018-04-14T07:15:58.912Z,116.30
2018-04-14T07:18:26.307Z,112.60
2018-04-14T07:20:53.703Z,117.73
2018-04-14T07:23:21.113Z,119.07
2018-04-14T07:25:48.470Z,114.37
2018-04-14T07:28:15.848Z,107.70
2018-04-14T07:30:43.312Z,117.07
2018-04-14T07:33:10.724Z,127.80
2018-04-14T07:35:38.131Z,122.97
2018-04-14T07:38:05.491Z,120.13
2018-04-14T07:40:32.876Z,133.97
2018-04-14T07:43:00.308Z,120.33
2018-04-14T07:45:27.736Z,146.77
2018-04-14T07:47:55.128Z,127.00
2018-04-14T07:50:22.559Z,125.33
2018-04-14T07:52:49.954Z,130.07
2018-04-14T07:55:17.344Z,121.70
2018-04-14T07:57:44.753Z,112.83
2018-04-14T08:00:12.130Z,121.67
2018-04-14T08:02:39.541Z,116.80
2018-04-14T08:05:06.902Z,126.10
2018-04-14T08:07:34.323Z,118.00
2018-04-14T08:10:01.744Z,119.23
2018-04-14T08:12:29.135Z,124.40
2018-04-14T08:14:56.659Z,105.80
2018-04-14T08:17:24.022Z,111.00
2018-04-14T08:19:51.375Z,116.87
2018-04-14T08:22:18.811Z,112.73
2018-04-14T08:24:46.209Z,119.73
2018-04-14T08:27:13.639Z,116.70
2018-04-14T08:29:41.037Z,111.57
2018-04-14T08:32:11.968Z,109.30
2018-04-14T08:34:39.408Z,98.13
2018-04-14T08:37:06.800Z,110.70
2018-04-14T08:39:34.184Z,99.07
2018-04-14T08:42:01.616Z,93.53
2018-04-14T08:44:29.682Z,92.80
2018-04-14T08:46:57.151Z,84.10
2018-04-14T08:49:24.513Z,86.53
2018-04-14T08:51:51.894Z,85.07
2018-04-14T08:54:19.266Z,90.63
2018-04-14T08:56:46.631Z,87.00
2018-04-14T08:59:14.008Z,90.30
2018-04-14T09:01:41.481Z,85.20
2018-04-14T09:04:08.896Z,90.17
2018-04-14T09:06:36.292Z,82.97
2018-04-14T09:09:03.834Z,82.80
2018-04-14T09:11:31.239Z,83.73
2018-04-14T09:13:58.624Z,79.40
2018-04-14T09:16:25.987Z,76.50
2018-04-14T09:18:53.420Z,67.27
2018-04-14T09:21:20.775Z,63.30
2018-04-14T09:23:48.127Z,71.23
2018-04-14T09:26:15.547Z,62.73
2018-04-14T09:28:42.903Z,67.00
2018-04-14T09:31:10.256Z,69.17
2018-04-14T09:33:37.681Z,66.80
2018-04-14T09:36:05.170Z,63.80
2018-04-14T09:38:32.581Z,65.77
2018-04-14T09:41:00.054Z,58.47
2018-04-14T09:43:27.437Z,60.20
2018-04-14T09:45:54.791Z,62.63
2018-04-14T09:48:22.216Z,59.90
2018-04-14T09:50:49.580Z,57.90
2018-04-14T09:53:16.999Z,55.00
2018-04-14T09:55:44.350Z,52.50
2018-04-14T09:58:11.706Z,50.37
2018-04-14T10:00:44.865Z,50.70
2018-04-14T10:03:18.078Z,45.53
2018-04-14T10:05:45.508Z,48.23
2018-04-14T10:08:12.916Z,47.07
2018-04-14T10:10:40.338Z,50.73
2018-04-14T10:13:07.743Z,47.90
2018-04-14T10:15:35.094Z,49.07
2018-04-14T10:18:02.459Z,44.27
2018-04-14T10:20:30.049Z,50.40
2018-04-14T10:22:57.471Z,47.83
2018-04-14T10:25:24.858Z,46.07
2018-04-14T10:27:52.280Z,41.40
2018-04-14T10:30:19.641Z,41.07
2018-04-14T10:32:46.994Z,43.37
2018-04-14T10:35:14.398Z,42.17
2018-04-14T10:37:41.847Z,43.60
2018-04-14T10:40:09.293Z,41.07
2018-04-14T10:42:36.744Z,45.13
2018-04-14T10:45:04.212Z,44.63
2018-04-14T10:47:31.582Z,38.50
2018-04-14T10:49:58.995Z,39.27
2018-04-14T10:52:26.379Z,41.87
2018-04-14T10:54:53.734Z,41.27
2018-04-14T10:57:21.155Z,40.97
2018-04-14T10:59:48.611Z,38.60
2018-04-14T11:02:16.011Z,41.20
2018-04-14T11:04:43.415Z,40.87
2018-04-14T11:07:10.940Z,37.73
2018-04-14T11:09:38.371Z,40.00
2018-04-14T11:12:05.792Z,37.13
2018-04-14T11:14:33.148Z,35.10
2018-04-14T11:17:00.531Z,36.97
2018-04-14T11:19:27.913Z,37.53
2018-04-14T11:21:55.288Z,44.50
2018-04-14T11:24:22.836Z,40.87
2018-04-14T11:26:50.238Z,40.53
2018-04-14T11:29:17.679Z,42.23
2018-04-14T11:31:45.079Z,40.30
2018-04-14T11:34:12.460Z,36.17
2018-04-14T11:36:39.856Z,39.67
2018-04-14T11:39:07.284Z,43.60
2018-04-14T11:41:34.670Z,39.30
2018-04-14T11:44:02.049Z,41.63
2018-04-14T11:46:29.467Z,44.33
2018-04-14T11:48:56.832Z,37.50
2018-04-14T11:51:24.194Z,43.00
2018-04-14T11:53:51.578Z,36.00
2018-04-14T11:56:19.036Z,37.20
2018-04-14T11:58:46.401Z,39.10
2018-04-14T12:01:13.784Z,42.13
2018-04-14T12:03:41.239Z,41.63
2018-04-14T12:06:08.629Z,39.93
2018-04-14T12:08:36.020Z,41.20
2018-04-14T12:11:03.403Z,37.50
2018-04-14T12:13:31.027Z,39.27
2018-04-14T12:15:58.490Z,36.47
2018-04-14T12:18:25.912Z,38.17
2018-04-14T12:20:53.307Z,39.10
2018-04-14T12:23:20.659Z,36.40
2018-04-14T12:25:48.071Z,33.37
2018-04-14T12:28:15.470Z,39.33
2018-04-14T12:30:42.850Z,47.20
2018-04-14T12:33:10.261Z,54.33
2018-04-14T12:35:37.659Z,72.23
2018-04-14T12:38:05.054Z,81.17
2018-04-14T12:40:32.476Z,78.27
2018-04-14T12:42:59.896Z,96.67
2018-04-14T12:45:27.255Z,110.43
2018-04-14T12:47:54.614Z,97.10
2018-04-14T12:50:22.011Z,99.33
2018-04-14T12:52:52.799Z,90.50
2018-04-14T12:55:20.179Z,81.80
2018-04-14T12:57:47.589Z,85.00
2018-04-14T13:00:14.945Z,99.90
2018-04-14T13:02:42.299Z,88.10
2018-04-14T13:05:09.698Z,98.73
2018-04-14T13:07:37.094Z,90.13
2018-04-14T13:10:04.446Z,79.67
2018-04-14T13:12:31.848Z,76.60
2018-04-14T13:14:59.243Z,75.60
2018-04-14T13:17:26.621Z,74.40
2018-04-14T13:19:54.040Z,74.40
2018-04-14T13:22:21.473Z,67.00
2018-04-14T13:24:48.912Z,70.97
2018-04-14T13:27:16.407Z,64.53
2018-04-14T13:29:43.937Z,58.77
2018-04-14T13:32:11.291Z,62.23
2018-04-14T13:34:38.724Z,55.57
2018-04-14T13:37:06.159Z,64.77
2018-04-14T13:39:33.579Z,79.43
2018-04-14T13:42:01.004Z,82.87
2018-04-14T13:44:28.374Z,50.83
2018-04-14T13:46:55.715Z,44.83
2018-04-14T13:49:23.106Z,45.53
2018-04-14T13:51:50.492Z,45.30
2018-04-14T13:54:17.935Z,43.60
2018-04-14T13:56:45.367Z,49.97
2018-04-14T13:59:12.742Z,42.13
2018-04-14T14:01:40.172Z,40.07
2018-04-14T14:04:07.594Z,37.83
2018-04-14T14:06:34.957Z,36.80
2018-04-14T14:09:02.342Z,32.33
2018-04-14T14:11:29.743Z,31.33
2018-04-14T14:13:57.111Z,32.57
2018-04-14T14:16:24.523Z,36.97
2018-04-14T14:18:51.944Z,32.67
2018-04-14T14:21:19.348Z,34.17
2018-04-14T14:23:46.735Z,31.50
2018-04-14T14:26:14.164Z,37.83
2018-04-14T14:28:41.572Z,34.90
2018-04-14T14:31:08.961Z,33.93
2018-04-14T14:33:36.394Z,32.03
2018-04-14T14:36:03.795Z,32.03
2018-04-14T14:38:31.213Z,33.07
2018-04-14T14:40:58.564Z,35.20
2018-04-14T14:43:25.914Z,31.70
2018-04-14T14:45:53.365Z,34.57
2018-04-14T14:48:20.851Z,34.47
2018-04-14T14:50:48.249Z,30.63
2018-04-14T14:53:15.735Z,29.03
2018-04-14T14:55:43.142Z,29.60
2018-04-14T14:58:10.532Z,31.27
2018-04-14T15:00:37.975Z,31.53
2018-04-14T15:03:05.323Z,34.27
2018-04-14T15:05:32.693Z,35.43
2018-04-14T15:08:00.204Z,32.97
2018-04-14T15:10:27.612Z,34.90
2018-04-14T15:12:56.067Z,32.33
2018-04-14T15:15:23.448Z,33.73
2018-04-14T15:17:50.923Z,32.50
2018-04-14T15:20:18.326Z,39.60
2018-04-14T15:22:45.765Z,48.57
2018-04-14T15:25:13.180Z,49.90
2018-04-14T15:27:40.600Z,47.93
2018-04-14T15:30:07.983Z,49.07
2018-04-14T15:32:35.368Z,46.47
2018-04-14T15:35:02.778Z,47.37
2018-04-14T15:37:30.156Z,43.70
2018-04-14T15:39:57.653Z,43.83
2018-04-14T15:42:26.040Z,45.70
2018-04-14T15:44:53.444Z,42.57
2018-04-14T15:47:20.843Z,48.50
2018-04-14T15:49:48.230Z,45.70
2018-04-14T15:52:15.612Z,46.27
2018-04-14T15:54:42.970Z,45.97
2018-04-14T15:57:10.378Z,47.20
2018-04-14T15:59:37.755Z,51.60
2018-04-14T16:02:05.214Z,43.10
2018-04-14T16:04:32.581Z,45.63
2018-04-14T16:06:59.937Z,44.30
2018-04-14T16:09:27.345Z,46.73
2018-04-14T16:11:54.703Z,44.10
2018-04-14T16:14:22.112Z,49.23
2018-04-14T16:16:49.563Z,45.20
2018-04-14T16:19:16.951Z,45.40
2018-04-14T16:21:44.319Z,41.90
2018-04-14T16:24:11.741Z,42.33
2018-04-14T16:26:39.114Z,44.73
2018-04-14T16:29:06.522Z,41.70
2018-04-14T16:31:33.936Z,38.93
2018-04-14T16:34:01.285Z,38.87
2018-04-14T16:36:28.699Z,34.30
2018-04-14T16:38:56.107Z,38.03
2018-04-14T16:41:23.521Z,39.53
2018-04-14T16:43:50.943Z,41.53
2018-04-14T16:46:18.340Z,43.10
2018-04-14T16:48:45.810Z,46.83
2018-04-14T16:51:13.222Z,42.60
2018-04-14T16:53:40.636Z,46.70
2018-04-14T16:56:08.065Z,48.23
2018-04-14T16:58:35.426Z,51.23
2018-04-14T17:01:02.788Z,47.50
2018-04-14T17:03:30.218Z,49.93
2018-04-14T17:05:57.598Z,49.47
2018-04-14T17:08:24.951Z,54.83
2018-04-14T17:10:52.370Z,55.53
2018-04-14T17:13:19.722Z,50.17
2018-04-14T17:15:47.101Z,49.83
2018-04-14T17:18:14.525Z,48.97
2018-04-14T17:20:41.920Z,49.40
2018-04-14T17:23:09.276Z,49.40
2018-04-14T17:25:36.662Z,50.70
2018-04-14T17:28:04.026Z,47.43
2018-04-14T17:30:34.722Z,45.27
2018-04-14T17:33:02.127Z,48.03
2018-04-14T17:35:29.474Z,49.40
2018-04-14T17:37:56.875Z,45.40
2018-04-14T17:40:24.324Z,52.20
2018-04-14T17:42:51.723Z,50.17
2018-04-14T17:45:19.126Z,48.57
2018-04-14T17:47:46.527Z,54.40
2018-04-14T17:50:13.917Z,52.00
2018-04-14T17:52:41.270Z,48.17
2018-04-14T17:55:08.672Z,49.17
2018-04-14T17:57:36.087Z,48.33
2018-04-14T18:00:03.634Z,50.70
2018-04-14T18:02:31.005Z,53.87
2018-04-14T18:04:58.407Z,56.13
2018-04-14T18:07:25.840Z,56.30
2018-04-14T18:09:53.293Z,53.13
2018-04-14T18:12:20.815Z,61.57
2018-04-14T18:14:48.207Z,59.60
2018-04-14T18:17:15.570Z,62.27
2018-04-14T18:19:43.019Z,66.30
2018-04-14T18:22:10.404Z,71.87
2018-04-14T18:24:37.790Z,72.80
2018-04-14T18:27:05.178Z,79.33
2018-04-14T18:29:32.522Z,89.90
2018-04-14T18:31:59.944Z,73.00
2018-04-14T18:34:27.334Z,79.33
2018-04-14T18:36:54.729Z,86.63
2018-04-14T18:39:22.225Z,67.00
2018-04-14T18:41:49.583Z,68.03
2018-04-14T18:44:17.007Z,67.20
2018-04-14T18:46:44.384Z,70.70
2018-04-14T18:49:11.723Z,76.70
2018-04-14T18:51:39.151Z,81.63
2018-04-14T18:54:06.943Z,94.93
2018-04-14T18:56:34.589Z,83.23
2018-04-14T18:59:01.973Z,77.73
2018-04-14T19:01:29.341Z,85.40
2018-04-14T19:03:56.760Z,93.83
2018-04-14T19:06:24.351Z,78.07
2018-04-14T19:08:51.921Z,81.80
2018-04-14T19:11:19.461Z,84.13
2018-04-14T19:13:46.852Z,88.70
2018-04-14T19:16:14.393Z,91.67
2018-04-14T19:18:41.745Z,97.47
2018-04-14T19:21:09.100Z,96.77
2018-04-14T19:23:36.797Z,92.87
2018-04-14T19:26:04.233Z,102.53
2018-04-14T19:28:31.779Z,97.80
2018-04-14T19:30:59.543Z,113.53
2018-04-14T19:33:27.111Z,111.80
2018-04-14T19:35:54.559Z,111.60
2018-04-14T19:38:21.946Z,108.73
2018-04-14T19:40:49.666Z,110.17
2018-04-14T19:43:17.159Z,121.00
2018-04-14T19:45:44.582Z,120.57
2018-04-14T19:48:12.052Z,123.37
2018-04-14T19:50:39.683Z,114.50
2018-04-14T19:53:07.370Z,118.27
2018-04-14T19:55:34.867Z,124.87
2018-04-14T19:58:02.255Z,135.13
2018-04-14T20:00:29.614Z,135.47
2018-04-14T20:02:57.073Z,129.10
2018-04-14T20:05:24.538Z,130.07
2018-04-14T20:07:51.928Z,136.67
2018-04-14T20:10:19.383Z,151.43
2018-04-14T20:12:47.037Z,148.33
2018-04-14T20:15:14.566Z,146.70
2018-04-14T20:17:42.036Z,153.33
2018-04-14T20:20:09.634Z,152.40
2018-04-14T20:22:37.028Z,140.23
2018-04-14T20:25:04.421Z,142.27
2018-04-14T20:27:32.027Z,154.00
2018-04-14T20:29:59.452Z,158.50
2018-04-14T20:32:27.188Z,166.50
2018-04-14T20:34:54.713Z,163.33
2018-04-14T20:37:22.163Z,160.00
2018-04-14T20:39:49.575Z,155.60
2018-04-14T20:42:16.957Z,150.87
2018-04-14T20:44:44.518Z,150.23
2018-04-14T20:47:11.895Z,156.87
2018-04-14T20:49:39.481Z,170.70
2018-04-14T20:52:06.927Z,162.50
2018-04-14T20:54:34.351Z,167.70
2018-04-14T20:57:01.706Z,173.90
2018-04-14T20:59:29.059Z,173.70
2018-04-14T21:01:56.569Z,161.77
2018-04-14T21:04:23.949Z,162.23
2018-04-14T21:06:51.314Z,162.60
2018-04-14T21:09:18.782Z,186.80
2018-04-14T21:11:46.298Z,172.40
2018-04-14T21:14:13.666Z,168.53
2018-04-14T21:16:41.181Z,169.27
2018-04-14T21:19:08.822Z,179.67
2018-04-14T21:21:36.238Z,177.00
2018-04-14T21:24:03.663Z,176.13
2018-04-14T21:26:32.253Z,206.13
2018-04-14T21:29:01.138Z,205.50
2018-04-14T21:31:28.636Z,193.00
2018-04-14T21:33:56.023Z,189.23
2018-04-14T21:36:23.423Z,201.27
2018-04-14T21:38:50.783Z,215.77
2018-04-14T21:41:18.211Z,205.70
2018-04-14T21:43:45.606Z,192.63
2018-04-14T21:46:12.988Z,204.00
2018-04-14T21:48:40.407Z,197.47
2018-04-14T21:51:07.801Z,199.10
2018-04-14T21:53:35.188Z,211.33
2018-04-14T21:56:02.648Z,214.30
2018-04-14T21:58:30.055Z,205.37
2018-04-14T22:00:57.408Z,198.37
2018-04-14T22:03:24.767Z,196.27
2018-04-14T22:05:52.162Z,195.57
2018-04-14T22:08:19.547Z,194.63
2018-04-14T22:10:46.912Z,198.37
2018-04-14T22:13:14.328Z,207.60
2018-04-14T22:15:41.740Z,193.43
2018-04-14T22:18:09.131Z,196.57
2018-04-14T22:20:36.490Z,195.33
2018-04-14T22:23:03.871Z,195.57
2018-04-14T22:25:31.260Z,198.87
2018-04-14T22:27:58.695Z,195.47
2018-04-14T22:30:26.055Z,194.97
2018-04-14T22:32:53.440Z,196.30
2018-04-14T22:35:20.856Z,222.87
2018-04-14T22:37:48.317Z,199.30
2018-04-14T22:40:15.704Z,207.40
2018-04-14T22:42:43.072Z,213.57
2018-04-14T22:45:10.507Z,202.37
2018-04-14T22:47:38.130Z,225.03
2018-04-14T22:50:05.524Z,207.67
2018-04-14T22:52:32.919Z,197.10
2018-04-14T22:55:00.298Z,202.90
2018-04-14T22:57:27.663Z,193.20
2018-04-14T22:59:55.671Z,190.50
2018-04-14T23:02:23.060Z,194.33
2018-04-14T23:04:50.470Z,218.13
2018-04-14T23:07:17.856Z,209.47
2018-04-14T23:09:45.307Z,235.27
2018-04-14T23:12:13.007Z,226.77
2018-04-14T23:14:40.487Z,223.37
2018-04-14T23:17:07.871Z,199.77
2018-04-14T23:19:35.381Z,208.37
2018-04-14T23:22:02.787Z,198.80
2018-04-14T23:24:30.138Z,188.63
2018-04-14T23:26:57.529Z,182.00
2018-04-14T23:29:24.955Z,179.73
2018-04-14T23:31:52.315Z,195.40
2018-04-14T23:34:19.810Z,179.60
2018-04-14T23:36:47.221Z,199.40
2018-04-14T23:39:14.610Z,187.03
2018-04-14T23:41:41.972Z,190.17
2018-04-14T23:44:09.392Z,175.13
2018-04-14T23:46:36.789Z,180.30
2018-04-14T23:49:04.324Z,200.93
2018-04-14T23:51:31.800Z,193.90
2018-04-14T23:53:59.231Z,205.40
2018-04-14T23:56:26.598Z,198.87
2018-04-14T23:58:54.032Z,199.07
